createdAt,value
2018-05-11T00:00:51.006Z,101679.28
2018-05-11T00:03:18.453Z,101681.27
2018-05-11T00:05:45.856Z,101679.94
2018-05-11T00:08:13.268Z,101680.56
2018-05-11T00:10:40.677Z,101688.82
2018-05-11T00:13:08.097Z,101686.51
2018-05-11T00:15:35.500Z,101687.02
2018-05-11T00:18:02.928Z,101688.70
2018-05-11T00:20:30.332Z,101683.92
2018-05-11T00:22:57.748Z,101683.36
2018-05-11T00:25:25.161Z,101688.80
2018-05-11T00:27:52.577Z,101689.72
2018-05-11T00:30:19.984Z,101690.70
2018-05-11T00:32:47.401Z,101691.75
2018-05-11T00:35:14.833Z,101698.48
2018-05-11T00:37:42.252Z,101705.41
2018-05-11T00:40:09.661Z,101703.31
2018-05-11T00:42:37.080Z,101706.60
2018-05-11T00:45:04.488Z,101708.63
2018-05-11T00:47:31.940Z,101709.92
2018-05-11T00:49:59.353Z,101714.55
2018-05-11T00:52:26.765Z,101722.58
2018-05-11T00:54:54.173Z,101722.33
2018-05-11T00:57:21.591Z,101715.05
2018-05-11T00:59:49.004Z,101720.52
2018-05-11T01:02:16.413Z,101718.05
2018-05-11T01:04:43.817Z,101714.89
2018-05-11T01:07:11.228Z,101721.34
2018-05-11T01:09:38.645Z,101719.58
2018-05-11T01:12:06.069Z,101719.64
2018-05-11T01:14:33.481Z,101721.09
2018-05-11T01:17:00.991Z,101723.81
2018-05-11T01:19:28.302Z,101726.44
2018-05-11T01:21:55.717Z,101729.81
2018-05-11T01:24:23.119Z,101737.44
2018-05-11T01:26:50.545Z,101745.34
2018-05-11T01:29:17.953Z,101742.27
2018-05-11T01:31:45.392Z,101746.83
2018-05-11T01:34:12.797Z,101752.87
2018-05-11T01:36:40.232Z,101759.44
2018-05-11T01:39:07.642Z,101757.58
2018-05-11T01:41:35.049Z,101751.53
2018-05-11T01:44:02.456Z,101762.54
2018-05-11T01:46:29.865Z,101763.77
2018-05-11T01:48:57.334Z,101762.92
2018-05-11T01:51:24.704Z,101768.42
2018-05-11T01:53:52.136Z,101777.34
2018-05-11T01:56:19.536Z,101778.73
2018-05-11T01:58:46.948Z,101785.48
2018-05-11T02:01:14.357Z,101796.50
2018-05-11T02:03:41.777Z,101798.44
2018-05-11T02:06:09.185Z,101793.84
2018-05-11T02:08:36.596Z,101800.60
2018-05-11T02:11:04.000Z,101800.86
2018-05-11T02:13:31.413Z,101805.69
2018-05-11T02:15:58.820Z,101804.09
2018-05-11T02:18:26.228Z,101810.98
2018-05-11T02:20:53.636Z,101818.42
2018-05-11T02:23:21.052Z,101817.88
2018-05-11T02:25:48.544Z,101820.03
2018-05-11T02:28:15.873Z,101823.87
2018-05-11T02:30:43.277Z,101819.42
2018-05-11T02:33:10.717Z,101826.42
2018-05-11T02:35:38.120Z,101826.75
2018-05-11T02:38:05.540Z,101834.69
2018-05-11T02:40:32.944Z,101830.64
2018-05-11T02:43:00.368Z,101834.13
2018-05-11T02:45:27.772Z,101832.72
2018-05-11T02:47:55.180Z,101836.23
2018-05-11T02:50:22.583Z,101835.00
2018-05-11T02:52:50.005Z,101830.00
2018-05-11T02:55:17.413Z,101836.66
2018-05-11T02:57:44.832Z,101838.47
2018-05-11T03:00:12.255Z,101836.09
2018-05-11T03:02:39.661Z,101840.70
2018-05-11T03:05:07.070Z,101849.63
2018-05-11T03:07:34.475Z,101850.27
2018-05-11T03:10:01.898Z,101854.09
2018-05-11T03:12:29.298Z,101856.56
2018-05-11T03:14:56.725Z,101860.14
2018-05-11T03:17:24.124Z,101859.16
2018-05-11T03:19:51.536Z,101866.11
2018-05-11T03:22:18.940Z,101864.09
2018-05-11T03:24:46.358Z,101857.72
2018-05-11T03:27:13.764Z,101866.34
2018-05-11T03:29:41.186Z,101875.28
2018-05-11T03:32:08.580Z,101867.70
2018-05-11T03:34:36.010Z,101874.39
2018-05-11T03:37:03.416Z,101873.16
2018-05-11T03:39:30.831Z,101882.42
2018-05-11T03:41:58.236Z,101878.11
2018-05-11T03:44:25.640Z,101878.47
2018-05-11T03:46:53.061Z,101878.69
2018-05-11T03:49:20.469Z,101876.73
2018-05-11T03:51:47.880Z,101880.06
2018-05-11T03:54:15.300Z,101874.34
2018-05-11T03:56:42.709Z,101871.50
2018-05-11T03:59:10.124Z,101868.22
2018-05-11T04:01:49.467Z,101875.78
2018-05-11T04:04:28.611Z,101886.50
2018-05-11T04:07:08.636Z,101893.38
2018-05-11T04:09:36.048Z,101897.52
2018-05-11T04:12:03.459Z,101898.23
2018-05-11T04:14:30.868Z,101901.02
2018-05-11T04:16:58.277Z,101900.60
2018-05-11T04:19:25.696Z,101910.86
2018-05-11T04:21:53.109Z,101904.14
2018-05-11T04:24:20.516Z,101911.73
2018-05-11T04:26:47.925Z,101914.63
2018-05-11T04:29:15.360Z,101922.48
2018-05-11T04:31:42.767Z,101920.91
2018-05-11T04:34:10.189Z,101928.05
2018-05-11T04:36:37.591Z,101929.94
2018-05-11T04:39:05.816Z,101929.67
2018-05-11T04:41:33.229Z,101931.89
2018-05-11T04:44:00.640Z,101936.48
2018-05-11T04:46:28.044Z,101939.52
2018-05-11T04:48:55.470Z,101942.69
2018-05-11T04:51:22.882Z,101937.39
2018-05-11T04:53:50.308Z,101938.22
2018-05-11T04:56:17.716Z,101944.84
2018-05-11T04:58:45.124Z,101943.59
2018-05-11T05:01:12.546Z,101954.07
2018-05-11T05:03:39.954Z,101948.64
2018-05-11T05:06:07.377Z,101955.67
2018-05-11T05:08:34.780Z,101946.67
2018-05-11T05:11:02.203Z,101959.39
2018-05-11T05:13:29.605Z,101948.80
2018-05-11T05:15:57.011Z,101956.30
2018-05-11T05:18:24.425Z,101956.66
2018-05-11T05:20:51.835Z,101954.17
2018-05-11T05:23:19.249Z,101952.91
2018-05-11T05:25:46.683Z,101949.61
2018-05-11T05:28:14.084Z,101946.61
2018-05-11T05:30:41.496Z,101960.40
2018-05-11T05:35:41.712Z,101957.25
2018-05-11T05:38:09.114Z,101952.05
2018-05-11T05:40:36.570Z,101954.09
2018-05-11T05:43:03.980Z,101958.74
2018-05-11T05:45:31.388Z,101959.29
2018-05-11T05:47:58.805Z,101960.41
2018-05-11T05:50:26.220Z,101972.58
2018-05-11T05:52:53.632Z,101968.22
2018-05-11T05:55:21.053Z,101973.38
2018-05-11T05:57:48.461Z,101974.20
2018-05-11T06:00:15.875Z,101966.70
2018-05-11T06:02:43.285Z,101960.67
2018-05-11T06:05:10.700Z,101959.19
2018-05-11T06:07:38.116Z,101960.08
2018-05-11T06:10:05.528Z,101955.37
2018-05-11T06:12:32.924Z,101964.14
2018-05-11T06:15:00.344Z,101966.95
2018-05-11T06:17:27.751Z,101970.95
2018-05-11T06:19:55.173Z,101976.11
2018-05-11T06:22:22.571Z,101973.60
2018-05-11T06:24:50.045Z,101973.92
2018-05-11T06:27:17.401Z,101978.81
2018-05-11T06:29:44.818Z,101981.70
2018-05-11T06:32:12.217Z,101975.81
2018-05-11T06:34:39.629Z,101975.97
2018-05-11T06:37:07.040Z,101971.86
2018-05-11T06:39:34.447Z,101981.80
2018-05-11T06:42:01.863Z,101979.17
2018-05-11T06:44:29.277Z,101982.23
2018-05-11T06:46:56.685Z,101989.20
2018-05-11T06:49:24.094Z,101984.92
2018-05-11T06:51:51.508Z,101993.44
2018-05-11T06:54:18.912Z,101990.28
2018-05-11T06:56:46.333Z,101985.91
2018-05-11T06:59:13.735Z,101985.61
2018-05-11T07:01:41.255Z,101986.03
2018-05-11T07:04:08.565Z,101984.98
2018-05-11T07:06:35.988Z,101986.14
2018-05-11T07:09:03.410Z,101985.47
2018-05-11T07:11:30.820Z,101988.20
2018-05-11T07:13:58.237Z,101981.58
2018-05-11T07:16:25.649Z,101986.03
2018-05-11T07:18:53.060Z,101986.42
2018-05-11T07:21:20.478Z,101988.23
2018-05-11T07:23:47.887Z,101984.34
2018-05-11T07:26:15.309Z,101987.76
2018-05-11T07:28:42.717Z,101983.55
2018-05-11T07:31:10.132Z,101978.34
2018-05-11T07:33:37.537Z,101977.48
2018-05-11T07:36:04.953Z,101973.55
2018-05-11T07:38:32.357Z,101975.66
2018-05-11T07:40:59.770Z,101979.53
2018-05-11T07:43:27.271Z,101973.39
2018-05-11T07:45:54.593Z,101973.91
2018-05-11T07:48:22.029Z,101968.11
2018-05-11T07:50:49.449Z,101966.69
2018-05-11T07:53:16.852Z,101977.25
2018-05-11T07:55:44.281Z,101964.47
2018-05-11T07:58:11.698Z,101968.33
2018-05-11T08:00:39.112Z,101976.06
2018-05-11T08:03:06.530Z,101977.60
2018-05-11T08:05:33.948Z,101977.42
2018-05-11T08:08:01.357Z,101980.64
2018-05-11T08:10:28.786Z,101971.30
2018-05-11T08:12:56.204Z,101961.87
2018-05-11T08:15:23.616Z,101970.95
2018-05-11T08:17:51.049Z,101968.05
2018-05-11T08:20:18.468Z,101974.48
2018-05-11T08:22:45.879Z,101963.72
2018-05-11T08:25:13.296Z,101971.28
2018-05-11T08:27:40.722Z,101972.44
2018-05-11T08:30:08.129Z,101963.25
2018-05-11T08:32:35.565Z,101971.97
2018-05-11T08:35:02.977Z,101974.30
2018-05-11T08:37:30.413Z,101972.14
2018-05-11T08:39:57.828Z,101969.14
2018-05-11T08:42:25.243Z,101967.67
2018-05-11T08:44:52.667Z,101964.30
2018-05-11T08:47:20.102Z,101968.52
2018-05-11T08:49:47.544Z,101963.85
2018-05-11T08:52:14.952Z,101959.37
2018-05-11T08:54:42.373Z,101958.88
2018-05-11T08:57:09.795Z,101966.80
2018-05-11T08:59:37.203Z,101966.34
2018-05-11T09:02:04.629Z,101957.62
2018-05-11T09:04:32.040Z,101961.81
2018-05-11T09:06:59.472Z,101963.91
2018-05-11T09:09:26.886Z,101959.95
2018-05-11T09:11:54.301Z,101952.07
2018-05-11T09:14:21.721Z,101949.05
2018-05-11T09:16:49.140Z,101949.48
2018-05-11T09:19:16.561Z,101953.61
2018-05-11T09:21:44.060Z,101949.82
2018-05-11T09:24:11.396Z,101943.59
2018-05-11T09:26:38.820Z,101945.25
2018-05-11T09:29:06.240Z,101944.06
2018-05-11T09:31:33.656Z,101945.05
2018-05-11T09:34:01.080Z,101955.36
2018-05-11T09:36:28.499Z,101951.69
2018-05-11T09:38:55.919Z,101948.84
2018-05-11T09:41:23.337Z,101956.13
2018-05-11T09:43:50.749Z,101946.78
2018-05-11T09:46:18.168Z,101949.73
2018-05-11T09:48:45.621Z,101953.86
2018-05-11T09:51:13.034Z,101958.95
2018-05-11T09:53:40.460Z,101958.70
2018-05-11T09:56:07.868Z,101950.20
2018-05-11T09:58:35.298Z,101952.20
2018-05-11T10:01:02.715Z,101954.12
2018-05-11T10:03:30.137Z,101964.11
2018-05-11T10:05:57.547Z,101956.44
2018-05-11T10:08:24.989Z,101955.65
2018-05-11T10:10:52.397Z,101952.30
2018-05-11T10:13:19.825Z,101957.16
2018-05-11T10:15:47.241Z,101955.37
2018-05-11T10:18:14.669Z,101949.64
2018-05-11T10:20:42.191Z,101954.70
2018-05-11T10:23:09.528Z,101952.84
2018-05-11T10:25:36.942Z,101955.48
2018-05-11T10:28:04.393Z,101955.13
2018-05-11T10:30:31.800Z,101956.88
2018-05-11T10:32:59.229Z,101956.25
2018-05-11T10:35:26.642Z,101960.12
2018-05-11T10:37:54.072Z,101962.48
2018-05-11T10:40:21.480Z,101967.27
2018-05-11T10:42:48.900Z,101958.36
2018-05-11T10:45:16.324Z,101960.83
2018-05-11T10:47:43.745Z,101958.74
2018-05-11T10:50:11.166Z,101962.95
2018-05-11T10:52:38.584Z,101959.08
2018-05-11T10:55:06.003Z,101963.77
2018-05-11T10:57:33.428Z,101959.49
2018-05-11T11:00:00.848Z,101960.67
2018-05-11T11:02:28.288Z,101959.86
2018-05-11T11:04:55.689Z,101958.55
2018-05-11T11:07:23.112Z,101956.58
2018-05-11T11:09:50.529Z,101960.99
2018-05-11T11:12:17.952Z,101958.63
2018-05-11T11:14:45.372Z,101957.62
2018-05-11T11:17:12.801Z,101959.25
2018-05-11T11:19:40.209Z,101958.47
2018-05-11T11:22:07.620Z,101955.23
2018-05-11T11:24:35.043Z,101956.21
2018-05-11T11:27:02.478Z,101959.49
2018-05-11T11:29:29.896Z,101960.16
2018-05-11T11:31:57.312Z,101954.91
2018-05-11T11:34:24.747Z,101950.86
2018-05-11T11:36:52.222Z,101948.37
2018-05-11T11:39:19.567Z,101950.57
2018-05-11T11:41:47.044Z,101952.84
2018-05-11T11:44:14.444Z,101948.45
2018-05-11T11:46:41.840Z,101953.95
2018-05-11T11:49:09.256Z,101943.04
2018-05-11T11:51:36.673Z,101940.38
2018-05-11T11:54:04.093Z,101938.73
2018-05-11T11:56:31.548Z,101936.31
2018-05-11T11:58:58.940Z,101941.34
2018-05-11T12:01:26.349Z,101932.86
2018-05-11T12:03:53.784Z,101933.45
2018-05-11T12:06:21.201Z,101929.41
2018-05-11T12:08:48.629Z,101935.65
2018-05-11T12:11:16.048Z,101928.52
2018-05-11T12:13:43.468Z,101931.94
2018-05-11T12:16:10.896Z,101931.94
2018-05-11T12:18:38.311Z,101933.75
2018-05-11T12:21:05.724Z,101926.47
2018-05-11T12:23:33.152Z,101925.23
2018-05-11T12:26:00.633Z,101925.88
2018-05-11T12:28:27.997Z,101921.23
2018-05-11T12:30:55.412Z,101923.86
2018-05-11T12:33:22.869Z,101925.23
2018-05-11T12:35:50.280Z,101923.63
2018-05-11T12:38:17.708Z,101922.75
2018-05-11T12:40:45.129Z,101913.05
2018-05-11T12:43:12.588Z,101920.53
2018-05-11T12:45:40.001Z,101916.94
2018-05-11T12:48:07.425Z,101921.41
2018-05-11T12:50:34.846Z,101915.02
2018-05-11T12:53:02.270Z,101915.68
2018-05-11T12:55:29.675Z,101903.99
2018-05-11T12:57:57.091Z,101914.48
2018-05-11T13:00:24.503Z,101911.25
2018-05-11T13:02:51.927Z,101914.27
2018-05-11T13:05:19.356Z,101920.70
2018-05-11T13:07:46.781Z,101909.37
2018-05-11T13:10:14.200Z,101910.34
2018-05-11T13:12:41.613Z,101908.09
2018-05-11T13:15:09.033Z,101906.45
2018-05-11T13:17:36.448Z,101905.22
2018-05-11T13:20:03.877Z,101899.11
2018-05-11T13:22:31.289Z,101894.27
2018-05-11T13:24:58.708Z,101887.22
2018-05-11T13:27:26.124Z,101882.58
2018-05-11T13:29:53.541Z,101882.94
2018-05-11T13:32:20.980Z,101883.17
2018-05-11T13:34:48.405Z,101878.58
2018-05-11T13:37:15.824Z,101881.23
2018-05-11T13:39:43.244Z,101882.48
2018-05-11T13:42:10.691Z,101881.30
2018-05-11T13:44:38.097Z,101880.10
2018-05-11T13:47:05.556Z,101882.93
2018-05-11T13:49:32.976Z,101881.48
2018-05-11T13:52:00.389Z,101881.45
2018-05-11T13:54:27.819Z,101874.98
2018-05-11T13:56:55.229Z,101876.80
2018-05-11T13:59:22.656Z,101874.79
2018-05-11T14:01:50.065Z,101868.52
2018-05-11T14:04:17.488Z,101871.75
2018-05-11T14:06:44.901Z,101872.97
2018-05-11T14:09:12.316Z,101875.98
2018-05-11T14:11:39.757Z,101874.98
2018-05-11T14:14:07.203Z,101876.75
2018-05-11T14:16:34.658Z,101870.05
2018-05-11T14:19:02.080Z,101873.00
2018-05-11T14:21:29.499Z,101865.91
2018-05-11T14:23:56.912Z,101864.49
2018-05-11T14:26:24.328Z,101867.72
2018-05-11T14:28:51.747Z,101865.16
2018-05-11T14:31:19.190Z,101867.81
2018-05-11T14:33:46.600Z,101874.05
2018-05-11T14:36:14.017Z,101869.14
2018-05-11T14:38:41.432Z,101865.08
2018-05-11T14:41:08.860Z,101862.64
2018-05-11T14:43:36.273Z,101862.12
2018-05-11T14:46:03.700Z,101858.36
2018-05-11T14:48:31.119Z,101852.12
2018-05-11T14:50:58.543Z,101847.02
2018-05-11T14:53:25.948Z,101841.17
2018-05-11T14:55:53.380Z,101833.83
2018-05-11T14:58:20.791Z,101835.53
2018-05-11T15:00:48.217Z,101832.71
2018-05-11T15:03:15.624Z,101837.16
2018-05-11T15:05:43.052Z,101837.16
2018-05-11T15:08:10.462Z,101837.77
2018-05-11T15:10:37.876Z,101839.31
2018-05-11T15:13:05.293Z,101837.50
2018-05-11T15:15:32.731Z,101829.19
2018-05-11T15:18:00.126Z,101835.39
2018-05-11T15:20:27.556Z,101838.80
2018-05-11T15:22:54.964Z,101828.88
2018-05-11T15:25:22.412Z,101826.37
2018-05-11T15:27:49.820Z,101823.72
2018-05-11T15:30:17.246Z,101826.73
2018-05-11T15:32:44.660Z,101832.56
2018-05-11T15:35:12.089Z,101826.91
2018-05-11T15:37:39.513Z,101820.90
2018-05-11T15:40:06.932Z,101817.67
2018-05-11T15:42:34.360Z,101812.44
2018-05-11T15:45:01.783Z,101811.39
2018-05-11T15:47:29.195Z,101816.04
2018-05-11T15:49:56.616Z,101812.39
2018-05-11T15:52:24.020Z,101808.57
2018-05-11T15:54:51.446Z,101805.38
2018-05-11T15:57:18.860Z,101804.79
2018-05-11T15:59:46.283Z,101804.38
2018-05-11T16:02:13.696Z,101804.74
2018-05-11T16:04:41.122Z,101800.52
2018-05-11T16:07:08.537Z,101790.23
2018-05-11T16:09:35.954Z,101792.41
2018-05-11T16:12:03.359Z,101792.40
2018-05-11T16:14:30.784Z,101790.17
2018-05-11T16:16:58.199Z,101785.98
2018-05-11T16:19:25.643Z,101792.00
2018-05-11T16:21:53.043Z,101786.77
2018-05-11T16:24:20.460Z,101781.94
2018-05-11T16:26:47.888Z,101779.06
2018-05-11T16:29:15.308Z,101781.45
2018-05-11T16:31:42.729Z,101778.97
2018-05-11T16:34:10.144Z,101777.13
2018-05-11T16:36:37.565Z,101780.72
2018-05-11T16:39:05.809Z,101777.71
2018-05-11T16:41:33.233Z,101771.45
2018-05-11T16:44:00.644Z,101773.68
2018-05-11T18:05:06.676Z,101762.47
2018-05-11T18:07:34.088Z,101763.28
2018-05-11T18:10:01.565Z,101765.55
2018-05-11T18:12:29.007Z,101766.21
2018-05-11T18:14:56.335Z,101764.44
2018-05-11T18:17:23.748Z,101766.30
2018-05-11T18:19:51.158Z,101764.94
2018-05-11T18:22:18.590Z,101761.58
2018-05-11T18:24:46.002Z,101761.67
2018-05-11T18:27:13.425Z,101767.16
2018-05-11T18:29:40.845Z,101772.00
2018-05-11T18:32:08.264Z,101770.41
2018-05-11T18:34:35.668Z,101775.63
2018-05-11T18:37:03.098Z,101770.98
2018-05-11T18:39:30.496Z,101768.17
2018-05-11T18:41:57.917Z,101766.34
2018-05-11T18:44:25.334Z,101762.09
2018-05-11T18:46:52.859Z,101763.84
2018-05-11T18:49:20.190Z,101758.74
2018-05-11T18:51:47.600Z,101763.51
2018-05-11T18:54:15.198Z,101762.45
2018-05-11T18:56:42.435Z,101773.83
2018-05-11T18:59:09.843Z,101771.97
2018-05-11T19:01:37.279Z,101772.25
2018-05-11T19:04:04.664Z,101784.98
2018-05-11T19:06:32.089Z,101785.45
2018-05-11T19:08:59.602Z,101793.00
2018-05-11T19:11:26.930Z,101791.31
2018-05-11T19:13:54.348Z,101795.87
2018-05-11T19:16:21.778Z,101798.47
2018-05-11T19:18:49.188Z,101797.98
2018-05-11T19:21:16.600Z,101802.93
2018-05-11T19:23:44.017Z,101806.26
2018-05-11T19:26:11.527Z,101810.28
2018-05-11T19:28:38.852Z,101812.32
2018-05-11T19:31:06.260Z,101815.17
2018-05-11T19:33:33.820Z,101814.12
2018-05-11T19:36:01.462Z,101811.91
2018-05-11T19:38:28.864Z,101811.88
2018-05-11T19:40:56.275Z,101812.84
2018-05-11T19:43:23.688Z,101825.08
2018-05-11T19:45:51.104Z,101817.77
2018-05-11T19:48:18.525Z,101821.02
2018-05-11T19:50:45.936Z,101824.73
2018-05-11T19:53:13.356Z,101823.73
2018-05-11T19:55:40.760Z,101824.58
2018-05-11T19:58:08.184Z,101822.34
2018-05-11T20:00:35.601Z,101818.40
2018-05-11T20:03:03.021Z,101819.89
2018-05-11T20:05:30.428Z,101827.97
2018-05-11T20:07:57.860Z,101830.73
2018-05-11T20:10:25.272Z,101835.92
2018-05-11T20:12:52.697Z,101833.95
2018-05-11T20:15:20.105Z,101838.55
2018-05-11T20:17:47.524Z,101837.91
2018-05-11T20:20:14.928Z,101851.71
2018-05-11T20:22:42.349Z,101842.49
2018-05-11T20:25:09.752Z,101852.17
2018-05-11T20:27:37.170Z,101851.55
2018-05-11T20:30:04.576Z,101854.44
2018-05-11T20:32:32.030Z,101851.50
2018-05-11T20:34:59.408Z,101855.38
2018-05-11T20:37:26.824Z,101853.51
2018-05-11T20:39:54.237Z,101854.66
2018-05-11T20:42:21.648Z,101855.20
2018-05-11T20:44:49.056Z,101854.98
2018-05-11T20:47:16.477Z,101859.14
2018-05-11T20:49:43.885Z,101845.73
2018-05-11T20:52:11.315Z,101851.88
2018-05-11T20:54:38.859Z,101850.25
2018-05-11T20:57:06.267Z,101852.44
2018-05-11T20:59:33.677Z,101850.01
2018-05-11T21:02:01.090Z,101851.55
2018-05-11T21:04:28.508Z,101854.03
2018-05-11T21:06:55.917Z,101850.05
2018-05-11T21:09:23.331Z,101844.15
2018-05-11T21:11:50.741Z,101840.87
2018-05-11T21:14:18.161Z,101849.88
2018-05-11T21:16:45.569Z,101850.05
2018-05-11T21:19:12.989Z,101851.39
2018-05-11T21:21:40.396Z,101855.35
2018-05-11T21:24:07.811Z,101855.97
2018-05-11T21:26:35.207Z,101858.65
2018-05-11T21:29:02.636Z,101856.41
2018-05-11T21:31:30.044Z,101862.83
2018-05-11T21:33:57.462Z,101858.15
2018-05-11T21:36:24.869Z,101858.23
2018-05-11T21:38:52.288Z,101863.06
2018-05-11T21:41:19.696Z,101863.92
2018-05-11T21:43:47.104Z,101864.05
2018-05-11T21:46:14.513Z,101858.07
2018-05-11T21:48:41.937Z,101866.05
2018-05-11T21:51:09.341Z,101865.23
2018-05-11T21:53:36.759Z,101860.27
2018-05-11T21:56:04.161Z,101860.59
2018-05-11T21:58:31.576Z,101855.89
2018-05-11T22:00:58.979Z,101857.25
2018-05-11T22:03:26.395Z,101856.98
2018-05-11T22:05:53.898Z,101862.31
2018-05-11T22:08:21.224Z,101863.63
2018-05-11T22:10:48.633Z,101860.27
2018-05-11T22:13:16.048Z,101861.88
2018-05-11T22:15:43.469Z,101862.45
2018-05-11T22:18:10.880Z,101863.26
2018-05-11T22:20:38.288Z,101862.97
2018-05-11T22:23:05.708Z,101859.02
2018-05-11T22:25:33.111Z,101854.16
2018-05-11T22:28:00.530Z,101856.80
2018-05-11T22:30:27.982Z,101850.26
2018-05-11T22:32:55.356Z,101850.17
2018-05-11T22:35:22.762Z,101853.91
2018-05-11T22:37:50.181Z,101848.67
2018-05-11T22:40:17.597Z,101850.63
2018-05-11T22:42:45.002Z,101853.89
2018-05-11T22:45:12.417Z,101850.56
2018-05-11T22:47:39.825Z,101842.37
2018-05-11T22:50:07.241Z,101838.92
2018-05-11T22:52:34.643Z,101843.43
2018-05-11T22:55:02.060Z,101841.86
2018-05-11T22:57:29.476Z,101840.80
2018-05-11T22:59:56.912Z,101834.31
2018-05-11T23:02:24.317Z,101839.57
2018-05-11T23:04:51.738Z,101842.68
2018-05-11T23:07:19.144Z,101833.27
2018-05-11T23:09:46.561Z,101830.97
2018-05-11T23:12:13.968Z,101831.31
2018-05-11T23:14:41.393Z,101827.38
2018-05-11T23:17:08.833Z,101826.27
2018-05-11T23:19:36.238Z,101826.10
2018-05-11T23:22:03.649Z,101827.09
2018-05-11T23:24:31.052Z,101830.63
2018-05-11T23:26:58.454Z,101823.37
2018-05-11T23:29:25.868Z,101824.13
2018-05-11T23:31:53.272Z,101827.45
2018-05-11T23:34:20.694Z,101824.97
2018-05-11T23:36:48.105Z,101821.05
2018-05-11T23:39:15.517Z,101822.27
2018-05-11T23:41:42.929Z,101817.57
2018-05-11T23:44:10.347Z,101812.63
2018-05-11T23:46:37.776Z,101810.09
2018-05-11T23:49:05.184Z,101811.52
2018-05-11T23:51:32.602Z,101810.19
2018-05-11T23:54:00.024Z,101805.89
2018-05-11T23:56:27.424Z,101809.45
2018-05-11T23:58:54.844Z,101802.28
